Time;durP1;ratioP1;P1;durP2;ratioP2;P2;SDS_P1;SDS_P2;PMS_P1;PMS_P2;Temp;Humidity;BMP_temperature;BMP_pressure;BME280_temperature;BME280_humidity;BME280_pressure;Samples;Min_cycle;Max_cycle;Signal;HPM_P1;HPM_P2
2022/12/16 00:01:05;;;;;;;9.80;6.45;;;11.70;70.10;;;;;;5053709;28;20029;-80
2022/12/16 00:03:30;;;;;;;9.23;6.25;;;11.70;56.70;;;;;;5035912;28;20025;-80
2022/12/16 00:05:56;;;;;;;8.27;5.82;;;11.80;56.80;;;;;;5052320;28;20037;-80
2022/12/16 00:08:21;;;;;;;10.63;7.00;;;11.70;69.90;;;;;;5035809;28;20391;-80
2022/12/16 00:10:53;;;;;;;7.75;5.90;;;11.80;56.70;;;;;;5035752;28;20079;-80
2022/12/16 00:13:19;;;;;;;9.65;6.38;;;11.80;56.80;;;;;;5035680;28;20029;-80
2022/12/16 00:15:48;;;;;;;7.63;5.70;;;11.70;56.70;;;;;;5052175;28;20052;-80
2022/12/16 00:18:13;;;;;;;9.90;5.93;;;11.70;70.70;;;;;;5053740;28;20021;-80
2022/12/16 00:20:44;;;;;;;7.82;5.82;;;11.70;56.80;;;;;;5035195;28;20487;-80
2022/12/16 00:23:10;;;;;;;8.38;5.25;;;11.70;56.70;;;;;;5035512;28;20025;-80
2022/12/16 00:25:35;;;;;;;8.98;5.50;;;11.70;56.80;;;;;;5053177;28;20025;-80
2022/12/16 00:28:01;;;;;;;6.75;5.40;;;11.70;56.70;;;;;;5053498;28;20091;-80
2022/12/16 00:30:26;;;;;;;8.13;5.45;;;11.70;56.80;;;;;;5035250;28;20023;-80
2022/12/16 00:32:52;;;;;;;8.13;4.82;;;11.70;56.80;;;;;;5035214;28;20059;-80
2022/12/16 00:35:19;;;;;;;7.40;4.57;;;11.70;56.70;;;;;;5035232;28;20395;-80
2022/12/16 00:37:46;;;;;;;7.85;5.38;;;11.60;57.20;;;;;;5035303;28;20410;-79
2022/12/16 00:40:12;;;;;;;7.68;5.40;;;11.60;56.80;;;;;;5035261;28;20047;-81
2022/12/16 00:42:37;;;;;;;7.35;5.05;;;13.00;57.90;;;;;;5051702;28;20017;-79
2022/12/16 00:45:03;;;;;;;7.65;4.80;;;11.60;56.90;;;;;;5052975;28;20100;-80
2022/12/16 00:47:29;;;;;;;7.18;4.78;;;11.60;56.90;;;;;;5034950;28;20609;-80
2022/12/16 00:49:55;;;;;;;7.35;4.75;;;11.60;57.90;;;;;;5034925;28;20021;-80
2022/12/16 00:52:20;;;;;;;5.32;4.30;;;11.60;56.90;;;;;;5052887;28;20025;-80
2022/12/16 00:54:46;;;;;;;8.15;5.03;;;11.60;56.90;;;;;;5034865;28;20039;-80
2022/12/16 00:57:11;;;;;;;5.20;4.00;;;11.60;57.00;;;;;;5052875;28;20013;-80
2022/12/16 00:59:37;;;;;;;6.68;4.43;;;11.60;70.20;;;;;;5035074;28;20480;-80
2022/12/16 01:02:03;;;;;;;6.20;4.38;;;11.50;57.10;;;;;;5034943;28;20049;-81
2022/12/16 01:04:28;;;;;;;6.95;4.45;;;11.60;57.10;;;;;;5051213;28;20029;-80
2022/12/16 01:06:54;;;;;;;5.32;3.85;;;11.50;57.00;;;;;;5052389;28;20037;-80
2022/12/16 01:09:20;;;;;;;5.55;3.97;;;11.60;57.00;;;;;;5034671;28;20071;-80
2022/12/16 01:11:46;;;;;;;5.20;4.18;;;11.50;57.00;;;;;;5034419;28;20399;-80
2022/12/16 01:14:12;;;;;;;5.13;3.70;;;11.50;57.00;;;;;;5034506;28;20104;-80
2022/12/16 01:16:38;;;;;;;4.85;4.18;;;11.50;57.10;;;;;;5034535;28;20025;-80
2022/12/16 01:19:03;;;;;;;4.47;3.63;;;11.40;70.10;;;;;;5052291;28;20032;-80
2022/12/16 01:21:29;;;;;;;4.85;4.22;;;11.50;70.30;;;;;;5050893;28;20082;-80
2022/12/16 01:23:55;;;;;;;4.35;3.58;;;11.50;57.00;;;;;;5050922;28;20078;-80
2022/12/16 01:26:20;;;;;;;5.32;3.67;;;11.50;57.00;;;;;;5034358;28;20029;-80
2022/12/16 01:28:49;;;;;;;4.38;3.50;;;11.50;57.00;;;;;;5034346;28;20057;-80
2022/12/16 01:31:17;;;;;;;4.57;3.70;;;11.60;57.10;;;;;;5034270;28;20036;-80
2022/12/16 01:33:42;;;;;;;3.88;3.40;;;11.50;57.00;;;;;;5052185;28;20021;-80
2022/12/16 01:36:08;;;;;;;4.80;3.80;;;11.50;57.00;;;;;;5052206;28;20100;-80
2022/12/16 01:38:35;;;;;;;5.63;3.40;;;11.50;56.90;;;;;;5050834;28;20376;-80
2022/12/16 01:41:02;;;;;;;4.53;3.30;;;11.50;70.20;;;;;;5034033;28;20063;-80
2022/12/16 01:43:36;;;;;;;5.55;3.45;;;11.50;57.00;;;;;;5034231;28;20017;-80
2022/12/16 01:46:11;;;;;;;4.63;3.25;;;11.50;57.00;;;;;;5051863;28;20021;-80
2022/12/16 01:48:51;;;;;;;4.53;3.28;;;11.50;57.00;;;;;;5034098;28;20036;-80
2022/12/16 01:51:34;;;;;;;3.67;3.00;;;11.50;57.00;;;;;;5050678;28;20017;-80
2022/12/16 01:54:26;;;;;;;3.88;2.70;;;11.50;70.30;;;;;;5034209;28;20025;-80
2022/12/16 01:56:59;;;;;;;5.07;3.28;;;11.50;57.10;;;;;;5051949;28;20032;-80
2022/12/16 01:59:27;;;;;;;2.92;2.70;;;11.50;57.00;;;;;;5051922;28;20021;-80
2022/12/16 02:01:53;;;;;;;3.72;3.05;;;11.50;57.10;;;;;;5033979;28;20036;-80
2022/12/16 02:04:19;;;;;;;3.33;3.03;;;11.50;57.00;;;;;;5033946;28;20017;-80
2022/12/16 02:06:45;;;;;;;3.88;2.95;;;11.40;57.00;;;;;;5033786;28;20044;-80
2022/12/16 02:09:12;;;;;;;4.38;2.97;;;11.40;57.60;;;;;;5033923;28;20072;-80
2022/12/16 02:11:55;;;;;;;3.00;2.65;;;11.50;57.20;;;;;;5052076;28;20075;-80
2022/12/16 02:14:36;;;;;;;3.95;2.65;;;11.40;56.90;;;;;;5034188;28;20609;-80
2022/12/16 02:17:24;;;;;;;3.60;2.38;;;11.50;57.10;;;;;;5036064;28;20020;-81
2022/12/16 02:19:56;;;;;;;3.80;2.40;;;11.40;57.00;;;;;;5037488;28;20033;-80
2022/12/16 02:22:55;;;;;;;4.57;2.60;;;11.40;57.10;;;;;;5037834;28;20107;-80
2022/12/16 02:25:57;;;;;;;3.55;2.60;;;11.40;57.10;;;;;;5055485;28;20025;-80
2022/12/16 02:28:32;;;;;;;2.65;2.20;;;11.40;57.10;;;;;;5054242;28;20500;-80
2022/12/16 02:31:25;;;;;;;3.28;2.35;;;11.40;56.50;;;;;;5037592;28;20036;-80
2022/12/16 02:34:13;;;;;;;4.05;2.22;;;11.40;57.00;;;;;;5055522;28;20476;-80
2022/12/16 02:37:08;;;;;;;4.00;2.67;;;11.40;57.10;;;;;;5055541;28;20040;-80
2022/12/16 02:39:41;;;;;;;2.38;2.17;;;11.40;57.10;;;;;;5054974;28;20029;-80
2022/12/16 02:42:25;;;;;;;2.47;2.28;;;11.40;57.70;;;;;;5037359;28;20043;-80
2022/12/16 02:45:18;;;;;;;3.38;2.28;;;11.40;57.10;;;;;;5037504;28;20021;-80
2022/12/16 02:47:45;;;;;;;2.50;1.90;;;11.40;57.10;;;;;;5044017;28;20045;-80
2022/12/16 02:50:19;;;;;;;2.90;2.08;;;11.30;70.40;;;;;;5055261;28;20130;-80
2022/12/16 02:52:44;;;;;;;3.80;2.03;;;11.40;57.10;;;;;;5037099;28;20135;-80
2022/12/16 02:55:11;;;;;;;3.05;2.10;;;;;;;;;;5053710;28;20111;-81
2022/12/16 02:57:58;;;;;;;2.30;2.10;;;11.30;56.60;;;;;;5055245;28;20041;-80
2022/12/16 03:00:25;;;;;;;2.30;1.70;;;11.30;56.60;;;;;;5055165;28;20040;-80
2022/12/16 03:03:06;;;;;;;2.85;2.20;;;11.30;57.10;;;;;;5054938;28;20040;-80
2022/12/16 03:05:36;;;;;;;2.10;1.77;;;11.30;57.10;;;;;;5036886;28;20039;-80
2022/12/16 03:08:06;;;;;;;2.80;2.10;;;11.40;57.40;;;;;;5036993;28;20018;-80
2022/12/16 03:10:46;;;;;;;1.85;1.70;;;11.30;57.10;;;;;;5036900;28;20315;-81
2022/12/16 03:13:14;;;;;;;2.42;2.00;;;11.30;57.10;;;;;;5053469;28;20021;-80
2022/12/16 03:15:42;;;;;;;1.80;1.60;;;11.30;57.10;;;;;;5054647;28;20048;-80
2022/12/16 03:18:11;;;;;;;2.38;1.75;;;11.30;57.10;;;;;;5054462;28;20079;-80
2022/12/16 03:20:46;;;;;;;1.70;1.45;;;11.30;57.20;;;;;;5054399;28;20076;-80
2022/12/16 03:23:17;;;;;;;1.50;1.40;;;11.30;57.20;;;;;;5053249;28;20025;-80
2022/12/16 03:25:46;;;;;;;2.22;1.52;;;11.30;57.10;;;;;;5053275;28;20071;-80
2022/12/16 03:28:27;;;;;;;2.50;1.60;;;11.30;57.20;;;;;;5035441;28;20048;-80
2022/12/16 03:31:01;;;;;;;2.17;1.40;;;11.30;57.20;;;;;;5054515;28;20025;-80
2022/12/16 03:33:38;;;;;;;2.17;1.67;;;11.30;57.20;;;;;;5054338;28;20123;-80
2022/12/16 03:36:11;;;;;;;2.03;1.80;;;11.30;57.20;;;;;;5036495;28;20029;-80
2022/12/16 03:38:39;;;;;;;2.45;1.50;;;11.30;57.10;;;;;;5036336;28;20057;-80
2022/12/16 03:41:06;;;;;;;2.80;1.80;;;11.30;57.10;;;;;;5054296;28;20043;-80
2022/12/16 03:43:32;;;;;;;1.42;1.33;;;11.30;57.20;;;;;;5054222;28;20392;-80
2022/12/16 03:46:03;;;;;;;3.63;1.60;;;11.30;57.10;;;;;;5054005;28;20037;-80
2022/12/16 03:48:29;;;;;;;2.53;1.70;;;11.20;57.10;;;;;;5036171;28;20543;-80
2022/12/16 03:50:55;;;;;;;2.10;1.60;;;11.30;57.20;;;;;;5036156;28;20082;-80
2022/12/16 03:53:25;;;;;;;1.95;1.70;;;11.20;57.10;;;;;;5036114;28;20028;-80
2022/12/16 03:55:50;;;;;;;2.40;1.60;;;11.20;57.20;;;;;;5053893;28;20017;-80
2022/12/16 03:58:16;;;;;;;1.70;1.30;;;;;;;;;;5053893;28;20271;-80
2022/12/16 04:00:42;;;;;;;1.92;1.20;;;11.20;56.60;;;;;;5035951;28;20044;-80
2022/12/16 04:03:07;;;;;;;1.55;1.30;;;11.20;57.20;;;;;;5053897;28;20108;-80
2022/12/16 04:05:33;;;;;;;1.38;1.27;;;11.20;57.20;;;;;;5053695;28;20032;-80
2022/12/16 04:07:59;;;;;;;2.50;1.17;;;11.20;57.10;;;;;;5053702;28;20133;-80
2022/12/16 04:24:19;;;;;;;1.83;1.13;;;11.30;57.20;;;;;;5053754;28;20095;-80
2022/12/16 04:29:31;;;;;;;1.20;1.00;;;11.10;57.20;;;;;;5053540;28;20059;-80
2022/12/16 04:31:57;;;;;;;1.98;1.00;;;11.10;57.20;;;;;;5053231;28;20357;-79
2022/12/16 04:34:27;;;;;;;1.30;1.20;;;11.10;57.10;;;;;;5053191;28;20067;-80
